Time;durP1;ratioP1;P1;durP2;ratioP2;P2;SDS_P1;SDS_P2;PMS_P1;PMS_P2;Temp;Humidity;BMP_temperature;BMP_pressure;BME280_temperature;BME280_humidity;BME280_pressure;Samples;Min_cycle;Max_cycle;Signal;HPM_P1;HPM_P2
2021/12/31 00:00:51;;;;;;;143.47;129.97;;;14.10;99.90;;;;;;6130730;23;20348;-87
2021/12/31 00:03:19;;;;;;;193.47;178.40;;;14.10;99.90;;;;;;6105524;23;20469;-87
2021/12/31 00:05:48;;;;;;;204.53;189.23;;;14.20;99.90;;;;;;6104579;23;20401;-87
2021/12/31 00:08:20;;;;;;;170.50;156.23;;;14.20;99.90;;;;;;6129989;23;20367;-86
2021/12/31 00:10:46;;;;;;;176.90;162.27;;;14.20;99.90;;;;;;6131013;23;20410;-86
2021/12/31 00:13:11;;;;;;;197.27;182.27;;;14.20;99.90;;;;;;6130805;23;20401;-86
2021/12/31 00:15:40;;;;;;;175.73;161.17;;;14.20;99.90;;;;;;6131007;23;20370;-84
2021/12/31 00:18:06;;;;;;;122.67;110.43;;;14.20;99.90;;;;;;6104447;23;20423;-86
2021/12/31 00:20:34;;;;;;;96.60;70.50;;;14.20;99.90;;;;;;6130878;23;20371;-87
2021/12/31 00:23:14;;;;;;;152.67;139.00;;;14.20;99.90;;;;;;6104746;23;20389;-86
2021/12/31 00:25:42;;;;;;;135.23;122.47;;;14.20;99.90;;;;;;6104903;23;20431;-86
2021/12/31 00:28:09;;;;;;;95.53;65.77;;;14.20;99.90;;;;;;6105355;23;20378;-86
2021/12/31 00:30:36;;;;;;;97.10;71.47;;;14.20;99.90;;;;;;6131086;23;20501;-87
2021/12/31 00:33:03;;;;;;;91.33;58.60;;;14.20;99.90;;;;;;6104488;23;20402;-86
2021/12/31 00:35:30;;;;;;;90.70;60.57;;;14.20;99.90;;;;;;6130623;23;20398;-86
2021/12/31 00:37:56;;;;;;;84.97;48.27;;;14.20;99.90;;;;;;6129995;23;20374;-87
2021/12/31 00:40:22;;;;;;;107.93;95.80;;;14.20;99.90;;;;;;6130956;23;20747;-86
2021/12/31 00:42:48;;;;;;;98.30;79.77;;;14.10;99.90;;;;;;6131268;23;20143;-86
2021/12/31 00:45:17;;;;;;;92.17;64.07;;;14.20;99.90;;;;;;6130396;23;20410;-87
2021/12/31 00:47:44;;;;;;;88.10;53.90;;;14.20;99.90;;;;;;6131202;23;20370;-86
2021/12/31 00:50:42;;;;;;;87.20;53.30;;;14.20;99.90;;;;;;6122381;23;20461;-87
2021/12/31 00:56:29;;;;;;;80.97;38.17;;;14.10;99.90;;;;;;6111972;23;20370;-87
2021/12/31 00:59:20;;;;;;;101.10;76.37;;;14.20;99.90;;;;;;6131815;23;20377;-88
2021/12/31 01:01:53;;;;;;;92.67;66.43;;;14.10;99.90;;;;;;6131480;23;20373;-88
2021/12/31 01:05:04;;;;;;;99.37;82.70;;;14.10;99.90;;;;;;6113296;22;20560;-88
2021/12/31 01:08:13;;;;;;;95.47;72.93;;;14.20;99.90;;;;;;6067104;23;20489;-87
2021/12/31 01:10:37;;;;;;;97.83;77.40;;;14.10;99.90;;;;;;6123953;23;20421;-87
2021/12/31 01:13:34;;;;;;;90.97;58.80;;;14.10;99.90;;;;;;6099334;23;20473;-87
2021/12/31 01:17:04;;;;;;;82.33;33.00;;;14.10;99.90;;;;;;6097347;23;20391;-87
2021/12/31 01:25:40;;;;;;;76.90;29.73;;;14.10;99.90;;;;;;6064815;23;20370;-87
2021/12/31 01:28:25;;;;;;;84.63;46.10;;;14.10;99.90;;;;;;6065308;23;20687;-87
2021/12/31 01:31:24;;;;;;;;;;;;;;;;;;;;;
2021/12/31 01:34:03;;;;;;;78.93;32.70;;;14.00;99.90;;;;;;6122840;23;20489;-87
2021/12/31 01:36:43;;;;;;;83.07;43.47;;;14.10;99.90;;;;;;6125656;23;20366;-87
2021/12/31 01:39:35;;;;;;;77.63;30.57;;;14.00;99.90;;;;;;6099268;23;20944;-87
2021/12/31 01:42:24;;;;;;;;;;;;;;;;;;;;;
2021/12/31 01:45:02;;;;;;;79.70;35.53;;;14.00;99.90;;;;;;6125147;23;20474;-88
2021/12/31 01:51:04;;;;;;;78.53;33.23;;;14.00;99.90;;;;;;6036032;23;20422;-87
2021/12/31 01:53:51;;;;;;;77.67;30.37;;;14.10;99.90;;;;;;6094669;23;20399;-87
2021/12/31 01:56:30;;;;;;;77.40;26.20;;;14.10;99.90;;;;;;6095069;23;20425;-87
2021/12/31 02:02:38;;;;;;;79.60;31.67;;;14.10;99.90;;;;;;6080257;23;20445;-87
2021/12/31 02:05:18;;;;;;;74.57;23.07;;;14.10;99.90;;;;;;6035800;23;20389;-87
2021/12/31 02:08:19;;;;;;;;;;;;;;;;;;;;;
2021/12/31 02:11:05;;;;;;;;;;;;;;;;;;;;;
2021/12/31 02:14:15;;;;;;;76.60;21.47;;;14.10;99.90;;;;;;6124993;23;20461;-87
2021/12/31 02:17:22;;;;;;;74.97;24.10;;;14.10;99.90;;;;;;6067257;23;20404;-87
2021/12/31 02:23:25;;;;;;;91.57;63.73;;;14.10;99.90;;;;;;6108733;23;20928;-87
2021/12/31 02:26:26;;;;;;;102.83;79.50;;;14.00;99.90;;;;;;6098354;23;20391;-87
2021/12/31 02:29:19;;;;;;;86.83;50.03;;;14.00;99.90;;;;;;6099257;23;20374;-87
2021/12/31 02:32:17;;;;;;;88.57;51.97;;;14.00;99.90;;;;;;6099979;23;20379;-87
2021/12/31 02:35:10;;;;;;;;;;;;;;;;;;;;;
2021/12/31 02:37:42;;;;;;;100.23;82.07;;;14.00;99.90;;;;;;6124978;23;20758;-87
2021/12/31 02:40:31;;;;;;;126.93;114.47;;;14.00;99.90;;;;;;6097602;23;20466;-87
2021/12/31 02:45:43;;;;;;;102.43;85.20;;;14.00;99.90;;;;;;6120302;23;20439;-87
2021/12/31 02:48:24;;;;;;;94.30;69.00;;;14.00;99.90;;;;;;6098907;23;20417;-88
2021/12/31 02:51:10;;;;;;;;;;;;;;;;;;;;;
2021/12/31 02:54:24;;;;;;;116.17;104.30;;;14.10;99.90;;;;;;6135927;23;20474;-87
2021/12/31 02:57:08;;;;;;;137.47;124.73;;;14.00;99.90;;;;;;6099226;23;20406;-86
2021/12/31 03:03:02;;;;;;;114.97;103.07;;;14.00;99.90;;;;;;6124826;23;20357;-86
2021/12/31 03:06:26;;;;;;;;;;;;;;;;;;;;;
2021/12/31 03:09:11;;;;;;;100.40;75.57;;;14.10;99.90;;;;;;6124989;23;20449;-86
2021/12/31 03:11:56;;;;;;;81.80;37.83;;;14.00;99.90;;;;;;6100358;23;20379;-87
2021/12/31 03:14:40;;;;;;;80.10;35.10;;;14.10;99.90;;;;;;6098842;23;20409;-86
2021/12/31 03:17:28;;;;;;;89.63;52.47;;;14.10;99.90;;;;;;6101257;23;20383;-87
2021/12/31 03:20:09;;;;;;;83.03;41.43;;;14.10;99.90;;;;;;6100176;23;20386;-87
2021/12/31 03:25:42;;;;;;;88.77;53.73;;;14.10;99.90;;;;;;6102022;23;20374;-87
2021/12/31 03:28:40;;;;;;;83.15;44.67;;;14.00;99.90;;;;;;6098842;23;20426;-86
2021/12/31 03:31:32;;;;;;;80.83;39.00;;;14.00;99.90;;;;;;6124160;23;20170;-86
2021/12/31 03:34:28;;;;;;;102.63;78.60;;;14.00;99.90;;;;;;6099568;23;20521;-86
2021/12/31 03:37:17;;;;;;;87.70;52.90;;;14.00;99.90;;;;;;6095304;23;20382;-86
2021/12/31 03:42:57;;;;;;;80.97;37.83;;;14.00;99.90;;;;;;6125417;23;20373;-86
2021/12/31 03:45:29;;;;;;;90.83;47.07;;;14.00;99.90;;;;;;6099017;23;20414;-87
2021/12/31 03:48:49;;;;;;;85.50;46.50;;;14.00;99.90;;;;;;6097819;23;20379;-86
2021/12/31 03:54:19;;;;;;;83.87;45.83;;;14.00;99.90;;;;;;6139954;23;20390;-86
2021/12/31 03:57:04;;;;;;;82.67;42.23;;;14.10;99.90;;;;;;6099599;23;20428;-87
2021/12/31 03:59:51;;;;;;;80.23;34.80;;;14.10;99.90;;;;;;6098310;23;20370;-86
2021/12/31 04:02:20;;;;;;;78.03;32.43;;;14.10;99.90;;;;;;6099964;23;20378;-87
2021/12/31 04:05:07;;;;;;;82.27;40.60;;;14.00;99.90;;;;;;6124268;23;20473;-87
2021/12/31 04:08:10;;;;;;;83.83;44.47;;;14.00;99.90;;;;;;6099628;23;20371;-86
2021/12/31 04:10:43;;;;;;;94.23;63.30;;;13.90;99.90;;;;;;6109460;23;20910;-87
2021/12/31 04:16:23;;;;;;;85.97;48.53;;;14.00;99.90;;;;;;6124051;23;20374;-86
2021/12/31 04:19:01;;;;;;;93.57;69.03;;;13.90;99.90;;;;;;6097701;23;20449;-86
2021/12/31 04:22:06;;;;;;;81.00;40.00;;;14.00;99.90;;;;;;6099735;23;20363;-86
2021/12/31 04:25:03;;;;;;;;;;;;;;;;;;;;;
2021/12/31 04:27:41;;;;;;;81.53;35.27;;;13.90;99.90;;;;;;6124544;23;20457;-86
2021/12/31 04:30:24;;;;;;;75.97;26.13;;;14.00;99.90;;;;;;6093711;23;20419;-86
2021/12/31 04:33:00;;;;;;;77.90;31.73;;;14.00;99.90;;;;;;6123172;23;20381;-86
2021/12/31 04:36:11;;;;;;;80.13;36.53;;;14.00;99.90;;;;;;6099116;23;20146;-86
2021/12/31 04:38:52;;;;;;;77.00;25.17;;;13.90;99.90;;;;;;6122996;23;20373;-86
2021/12/31 04:41:45;;;;;;;88.23;52.80;;;13.90;99.90;;;;;;6098777;23;20868;-86
2021/12/31 04:44:45;;;;;;;81.07;33.67;;;13.90;99.90;;;;;;6110321;23;20414;-86
2021/12/31 04:47:42;;;;;;;77.40;28.13;;;13.80;99.90;;;;;;6099421;23;20947;-86
2021/12/31 04:50:37;;;;;;;74.37;24.00;;;13.90;99.90;;;;;;6092993;23;20468;-87
2021/12/31 04:53:10;;;;;;;78.27;31.53;;;13.90;99.90;;;;;;6122467;23;20920;-86
2021/12/31 04:55:38;;;;;;;79.13;30.83;;;13.90;99.90;;;;;;6106012;23;20382;-87
2021/12/31 04:58:35;;;;;;;79.30;36.30;;;13.90;99.90;;;;;;6096201;23;20390;-86
2021/12/31 05:01:09;;;;;;;78.07;31.07;;;13.90;99.90;;;;;;6012298;23;20464;-86
2021/12/31 05:03:48;;;;;;;76.17;25.87;;;13.90;99.90;;;;;;6011322;23;20496;-86
2021/12/31 05:06:23;;;;;;;77.07;27.27;;;13.90;99.90;;;;;;6012931;23;20403;-86
2021/12/31 05:09:08;;;;;;;;;;;;;;;;;;;;;
2021/12/31 05:11:52;;;;;;;76.63;30.70;;;13.90;99.90;;;;;;6037477;23;20217;-87
2021/12/31 05:14:22;;;;;;;74.15;21.83;;;13.80;99.90;;;;;;6012311;23;20404;-86
2021/12/31 05:17:00;;;;;;;75.60;24.57;;;13.90;99.90;;;;;;6012185;23;20152;-87
2021/12/31 05:20:01;;;;;;;76.87;25.33;;;13.80;99.90;;;;;;6012276;23;20373;-87
2021/12/31 05:22:42;;;;;;;75.40;26.17;;;13.80;99.90;;;;;;6035307;23;20820;-86
2021/12/31 05:25:17;;;;;;;76.57;26.47;;;13.80;99.90;;;;;;6053701;23;20398;-87
2021/12/31 05:28:05;;;;;;;76.27;28.87;;;13.70;99.90;;;;;;6099451;23;20374;-86
2021/12/31 05:30:41;;;;;;;78.13;32.67;;;13.70;99.90;;;;;;6099123;23;20899;-86
2021/12/31 05:33:28;;;;;;;78.30;27.60;;;13.70;99.90;;;;;;6098860;23;20381;-86
2021/12/31 05:36:18;;;;;;;82.07;39.88;;;13.70;99.90;;;;;;6084740;23;20382;-86
2021/12/31 05:38:55;;;;;;;79.57;36.47;;;13.60;99.90;;;;;;6099513;23;20147;-86
2021/12/31 05:41:24;;;;;;;77.87;25.40;;;13.70;99.90;;;;;;6099365;23;20382;-87
2021/12/31 05:44:10;;;;;;;78.27;33.80;;;13.70;99.90;;;;;;6099059;23;20449;-86
2021/12/31 05:46:52;;;;;;;94.80;58.57;;;13.60;99.90;;;;;;6103660;23;20856;-86
2021/12/31 05:49:33;;;;;;;92.73;66.40;;;13.60;99.90;;;;;;6099038;23;20449;-87
2021/12/31 05:52:12;;;;;;;92.10;64.20;;;13.60;99.90;;;;;;6126739;23;20390;-86
2021/12/31 05:55:06;;;;;;;98.97;78.30;;;13.60;99.90;;;;;;6100240;23;20437;-86
2021/12/31 05:57:38;;;;;;;93.70;64.20;;;13.60;99.90;;;;;;6097536;23;20862;-86
2021/12/31 06:00:18;;;;;;;92.80;64.38;;;13.60;99.90;;;;;;6099014;23;20871;-86
2021/12/31 06:02:49;;;;;;;99.00;73.88;;;13.60;99.90;;;;;;6100343;23;20177;-86
2021/12/31 06:05:27;;;;;;;142.32;128.88;;;13.50;99.90;;;;;;6098834;23;20193;-86
2021/12/31 06:08:28;;;;;;;104.03;89.20;;;13.50;99.90;;;;;;6098914;23;20611;-87
2021/12/31 06:14:21;;;;;;;150.82;136.90;;;13.50;99.90;;;;;;6031896;23;20394;-87
2021/12/31 06:17:21;;;;;;;;;;;;;;;;;;;;;
2021/12/31 06:20:21;;;;;;;140.27;126.78;;;13.50;99.90;;;;;;6089800;23;20596;-87
2021/12/31 06:23:24;;;;;;;159.63;145.25;;;13.40;99.90;;;;;;6103057;23;20162;-86
2021/12/31 06:26:09;;;;;;;177.73;163.23;;;13.40;99.90;;;;;;6127713;23;20184;-86
2021/12/31 06:28:56;;;;;;;122.78;110.53;;;13.40;99.90;;;;;;6103111;23;20151;-86
2021/12/31 06:31:54;;;;;;;102.70;90.20;;;13.40;99.90;;;;;;6103143;23;20162;-87
2021/12/31 06:34:47;;;;;;;;;;;;;;;;;;;;;
2021/12/31 06:37:53;;;;;;;;;;;;;;;;;;;;;
2021/12/31 06:40:39;;;;;;;127.05;114.78;;;13.40;99.90;;;;;;6129568;23;20386;-87
2021/12/31 06:43:19;;;;;;;94.18;67.40;;;13.30;99.90;;;;;;6102934;23;20170;-86
2021/12/31 06:45:57;;;;;;;89.28;53.80;;;13.20;99.90;;;;;;6102497;23;20461;-86
2021/12/31 06:48:26;;;;;;;88.87;54.73;;;13.20;99.90;;;;;;6094419;23;20210;-86
2021/12/31 06:50:52;;;;;;;86.50;51.53;;;13.10;99.90;;;;;;6123136;23;20545;-85
2021/12/31 06:53:18;;;;;;;86.90;52.83;;;13.10;99.90;;;;;;6130991;23;20165;-85
2021/12/31 06:55:44;;;;;;;82.33;42.20;;;13.20;99.90;;;;;;6104668;23;20527;-85
2021/12/31 06:58:09;;;;;;;85.50;44.43;;;13.10;99.90;;;;;;6130308;23;20146;-85
2021/12/31 07:00:35;;;;;;;121.93;109.73;;;13.00;99.90;;;;;;6130141;23;20143;-86
2021/12/31 07:03:09;;;;;;;251.80;234.43;;;12.90;99.90;;;;;;6130181;23;20423;-85
2021/12/31 07:05:35;;;;;;;219.65;203.73;;;12.80;99.90;;;;;;6130091;23;20225;-85
2021/12/31 07:08:01;;;;;;;181.90;167.30;;;12.80;99.90;;;;;;6130706;23;20225;-85
2021/12/31 07:10:28;;;;;;;168.00;153.27;;;12.80;99.90;;;;;;6129967;23;20170;-85
2021/12/31 07:13:10;;;;;;;188.03;173.17;;;12.80;99.90;;;;;;6104670;23;20665;-85
2021/12/31 07:15:44;;;;;;;155.57;141.98;;;12.70;99.90;;;;;;6130535;23;20340;-85
2021/12/31 07:18:10;;;;;;;141.48;128.55;;;12.70;99.90;;;;;;6104024;23;20185;-85
2021/12/31 07:20:36;;;;;;;167.55;153.18;;;12.70;99.90;;;;;;6130185;23;20143;-85
2021/12/31 07:23:11;;;;;;;99.75;79.57;;;12.70;99.90;;;;;;6104871;23;20239;-85
2021/12/31 07:25:38;;;;;;;101.72;88.53;;;12.70;99.90;;;;;;6103989;23;20578;-85
2021/12/31 07:28:05;;;;;;;123.40;110.55;;;12.60;99.90;;;;;;6104197;23;20151;-85
2021/12/31 07:30:30;;;;;;;132.40;119.40;;;12.60;99.90;;;;;;6104609;23;20689;-85
2021/12/31 07:32:56;;;;;;;120.70;108.10;;;12.50;99.90;;;;;;6103937;23;20146;-85
2021/12/31 07:35:23;;;;;;;123.07;110.90;;;12.50;99.90;;;;;;6129610;23;20167;-85
2021/12/31 07:37:53;;;;;;;143.48;130.00;;;12.50;99.90;;;;;;6129082;23;20371;-85
2021/12/31 07:40:25;;;;;;;92.25;62.95;;;12.50;99.90;;;;;;6103664;23;20167;-85
2021/12/31 07:42:51;;;;;;;94.78;68.65;;;12.50;99.90;;;;;;6103242;23;20166;-84
2021/12/31 07:45:17;;;;;;;97.90;78.77;;;12.50;99.90;;;;;;6128455;23;20178;-85
2021/12/31 07:47:44;;;;;;;201.87;186.03;;;12.50;99.90;;;;;;6128414;23;20373;-83
2021/12/31 07:50:11;;;;;;;185.75;171.05;;;12.30;99.90;;;;;;6127777;23;20428;-84
2021/12/31 07:52:38;;;;;;;265.88;247.80;;;12.30;99.90;;;;;;6103552;23;20146;-85
2021/12/31 07:55:04;;;;;;;225.67;209.30;;;12.30;99.90;;;;;;6102207;23;20170;-85
2021/12/31 07:57:30;;;;;;;223.57;207.23;;;12.30;99.90;;;;;;6128016;23;20366;-85
2021/12/31 07:59:56;;;;;;;147.67;134.30;;;12.30;99.90;;;;;;6102560;23;20150;-84
2021/12/31 08:02:21;;;;;;;140.77;127.97;;;12.40;99.90;;;;;;6129506;23;20142;-85
2021/12/31 08:04:47;;;;;;;139.70;126.90;;;12.30;99.90;;;;;;6102809;23;20181;-85
2021/12/31 08:07:13;;;;;;;170.80;156.40;;;12.30;99.90;;;;;;6103068;23;20193;-84
2021/12/31 08:09:38;;;;;;;172.27;158.17;;;12.30;99.90;;;;;;6102953;23;20178;-84
2021/12/31 08:12:04;;;;;;;232.80;216.43;;;12.30;99.90;;;;;;6128545;23;20576;-84
2021/12/31 08:14:32;;;;;;;235.25;218.98;;;12.30;99.90;;;;;;6127079;23;20162;-85
2021/12/31 08:17:01;;;;;;;204.00;188.70;;;12.30;99.90;;;;;;6130127;23;20165;-85
2021/12/31 08:19:27;;;;;;;202.93;187.27;;;12.30;99.90;;;;;;6128412;23;20154;-85
2021/12/31 08:21:52;;;;;;;127.33;115.43;;;12.30;99.90;;;;;;6128996;23;20213;-85
2021/12/31 08:24:21;;;;;;;118.43;106.60;;;12.30;99.90;;;;;;6128845;23;20163;-85
2021/12/31 08:26:47;;;;;;;180.15;165.30;;;12.30;99.90;;;;;;6103411;23;20181;-85
2021/12/31 08:29:13;;;;;;;179.00;164.30;;;12.40;99.90;;;;;;6129567;23;20166;-85
2021/12/31 08:31:40;;;;;;;214.38;198.77;;;12.50;99.90;;;;;;6102723;23;20473;-85
2021/12/31 08:34:10;;;;;;;229.25;212.80;;;12.50;99.90;;;;;;6127776;23;20197;-84
2021/12/31 08:36:36;;;;;;;166.45;152.93;;;12.60;99.90;;;;;;6101862;23;20458;-84
2021/12/31 08:39:04;;;;;;;178.30;164.25;;;12.60;99.90;;;;;;6128460;23;20217;-85
2021/12/31 08:41:30;;;;;;;185.30;170.80;;;12.60;99.90;;;;;;6128463;23;20607;-85
2021/12/31 08:43:56;;;;;;;212.05;196.55;;;12.70;99.90;;;;;;6100778;23;20636;-85
2021/12/31 08:46:22;;;;;;;175.63;161.17;;;12.80;99.90;;;;;;6128753;23;20245;-85
2021/12/31 08:48:48;;;;;;;123.72;111.60;;;12.90;99.90;;;;;;6128558;23;20139;-85
2021/12/31 08:51:16;;;;;;;147.87;133.53;;;12.90;99.90;;;;;;6103218;23;20183;-85
2021/12/31 08:53:43;;;;;;;170.32;156.38;;;12.90;99.90;;;;;;6129160;23;20567;-85
2021/12/31 08:56:09;;;;;;;169.17;155.27;;;12.90;99.90;;;;;;6128472;23;20145;-85
2021/12/31 08:58:35;;;;;;;97.97;80.97;;;12.90;99.90;;;;;;6129250;23;20246;-85
2021/12/31 09:01:03;;;;;;;104.68;68.85;;;12.90;99.90;;;;;;6102725;23;20150;-85
2021/12/31 09:03:29;;;;;;;94.47;72.68;;;13.00;99.90;;;;;;6128561;23;20163;-85
2021/12/31 09:05:58;;;;;;;87.77;49.40;;;13.00;99.90;;;;;;6129025;23;20225;-85
2021/12/31 09:08:26;;;;;;;117.15;105.25;;;13.00;99.90;;;;;;6127103;23;20143;-84
2021/12/31 09:10:52;;;;;;;150.77;137.60;;;12.90;99.90;;;;;;6126503;23;20646;-84
2021/12/31 09:13:18;;;;;;;194.57;179.83;;;12.90;99.90;;;;;;6127546;23;20143;-85
2021/12/31 09:15:44;;;;;;;157.73;143.63;;;12.90;99.90;;;;;;6102181;23;20158;-85
2021/12/31 09:18:10;;;;;;;117.47;105.70;;;13.00;99.90;;;;;;6128050;23;20537;-85
2021/12/31 09:20:35;;;;;;;98.93;76.47;;;13.00;99.90;;;;;;6128489;23;20667;-84
2021/12/31 09:23:02;;;;;;;87.77;47.57;;;13.10;99.90;;;;;;6127501;23;20246;-85
2021/12/31 09:25:28;;;;;;;81.95;40.42;;;13.20;99.90;;;;;;6102844;23;20237;-85
2021/12/31 09:27:54;;;;;;;81.37;36.00;;;13.20;99.90;;;;;;6104322;23;20201;-85
2021/12/31 09:30:19;;;;;;;80.67;39.53;;;13.30;99.90;;;;;;6129882;23;20501;-84
2021/12/31 09:32:45;;;;;;;80.37;36.87;;;13.30;99.90;;;;;;6129280;23;20146;-85
2021/12/31 09:35:11;;;;;;;75.97;27.90;;;13.20;99.90;;;;;;6102805;23;20171;-85
2021/12/31 09:37:39;;;;;;;76.60;29.17;;;13.30;99.90;;;;;;6128619;23;20379;-84
2021/12/31 09:40:06;;;;;;;75.60;27.90;;;13.30;99.90;;;;;;6102730;23;20200;-84
2021/12/31 09:42:32;;;;;;;77.60;30.98;;;13.40;99.90;;;;;;6102357;23;20393;-84
2021/12/31 09:44:58;;;;;;;77.43;32.87;;;13.30;99.90;;;;;;6127903;23;20612;-84
2021/12/31 09:47:23;;;;;;;75.90;28.07;;;13.40;99.90;;;;;;6101407;23;20237;-84
2021/12/31 09:49:49;;;;;;;77.47;31.90;;;13.40;99.90;;;;;;6127279;23;20175;-84
2021/12/31 09:52:16;;;;;;;80.60;37.33;;;13.30;99.90;;;;;;6128126;23;20151;-84
2021/12/31 09:54:46;;;;;;;80.57;35.78;;;13.30;99.90;;;;;;6102019;23;20173;-84
2021/12/31 09:57:14;;;;;;;78.47;31.45;;;13.30;99.90;;;;;;6127564;23;20151;-84
2021/12/31 09:59:41;;;;;;;77.93;32.17;;;13.30;99.90;;;;;;6101042;23;20154;-84
2021/12/31 10:02:08;;;;;;;78.37;33.13;;;13.40;99.90;;;;;;6102152;23;20387;-84
2021/12/31 10:04:49;;;;;;;80.95;38.50;;;13.40;99.90;;;;;;6102474;23;20705;-85
2021/12/31 10:07:20;;;;;;;78.65;32.08;;;13.30;99.90;;;;;;6127828;23;20131;-85
2021/12/31 10:10:09;;;;;;;77.50;31.23;;;13.40;99.90;;;;;;6102162;23;20197;-84
2021/12/31 10:12:56;;;;;;;76.38;29.27;;;13.40;99.90;;;;;;6101188;23;20242;-85
2021/12/31 10:15:24;;;;;;;75.88;26.98;;;13.40;99.90;;;;;;6127959;23;20158;-85
2021/12/31 10:17:50;;;;;;;74.78;26.00;;;13.50;99.90;;;;;;6102076;23;20147;-84
2021/12/31 10:20:17;;;;;;;77.27;29.30;;;13.60;99.90;;;;;;6126811;23;20150;-84
2021/12/31 10:22:44;;;;;;;76.60;28.30;;;13.50;99.90;;;;;;6102953;23;20390;-84
2021/12/31 10:25:21;;;;;;;79.97;32.47;;;13.60;99.90;;;;;;6127187;23;20473;-84
2021/12/31 10:27:51;;;;;;;76.23;28.43;;;13.60;99.90;;;;;;6126993;23;20380;-85
2021/12/31 10:30:22;;;;;;;77.50;32.63;;;13.70;99.90;;;;;;6101491;23;20425;-85
2021/12/31 10:32:48;;;;;;;76.47;29.80;;;13.70;99.90;;;;;;6128661;23;20351;-84
2021/12/31 10:35:20;;;;;;;77.63;28.73;;;13.80;99.90;;;;;;6127811;23;20382;-84
2021/12/31 10:37:48;;;;;;;78.70;33.23;;;13.80;99.90;;;;;;6102053;23;20728;-84
2021/12/31 10:40:33;;;;;;;78.47;32.47;;;13.90;99.90;;;;;;6128003;23;20371;-84
2021/12/31 10:43:23;;;;;;;91.95;68.88;;;14.00;99.90;;;;;;6102534;23;20516;-84
2021/12/31 10:46:04;;;;;;;90.00;60.10;;;14.00;99.90;;;;;;6128928;23;20131;-84
2021/12/31 10:48:47;;;;;;;105.85;94.47;;;14.10;99.90;;;;;;6128356;23;20343;-84
2021/12/31 10:51:15;;;;;;;90.82;70.15;;;14.10;99.90;;;;;;6127056;23;20174;-84
2021/12/31 10:53:49;;;;;;;123.60;111.93;;;14.10;99.90;;;;;;6126915;23;20162;-84
2021/12/31 10:56:15;;;;;;;135.77;123.47;;;14.30;99.90;;;;;;6103303;23;20370;-83
2021/12/31 10:58:44;;;;;;;167.17;153.97;;;14.40;99.90;;;;;;6102252;23;20712;-82
2021/12/31 11:01:12;;;;;;;161.43;148.47;;;14.40;99.90;;;;;;6128178;23;20522;-83
2021/12/31 11:03:39;;;;;;;188.43;174.30;;;14.40;99.90;;;;;;6102354;23;20405;-83
2021/12/31 11:06:07;;;;;;;185.37;171.43;;;14.50;99.90;;;;;;6129191;23;20700;-83
2021/12/31 11:08:34;;;;;;;220.83;205.10;;;14.40;99.90;;;;;;6103274;23;20379;-84
2021/12/31 11:11:01;;;;;;;219.73;204.43;;;14.50;99.90;;;;;;6127197;23;20417;-83
2021/12/31 11:13:30;;;;;;;211.77;196.67;;;14.50;99.90;;;;;;6099724;23;20394;-83
2021/12/31 11:15:57;;;;;;;236.00;219.67;;;14.40;99.90;;;;;;6101390;23;20375;-82
2021/12/31 11:18:26;;;;;;;183.10;168.90;;;14.40;99.90;;;;;;6127632;23;20363;-84
2021/12/31 11:20:57;;;;;;;199.33;184.73;;;14.30;99.90;;;;;;6128570;23;20374;-84
2021/12/31 11:23:27;;;;;;;210.00;194.87;;;14.20;99.90;;;;;;6129618;23;20770;-84
2021/12/31 11:26:00;;;;;;;220.23;204.83;;;14.30;99.90;;;;;;6103347;23;20450;-84
2021/12/31 11:28:31;;;;;;;210.30;195.50;;;14.30;99.90;;;;;;6130324;23;20351;-84
2021/12/31 11:31:21;;;;;;;197.50;183.30;;;14.20;99.90;;;;;;6128828;23;20449;-84
2021/12/31 11:33:56;;;;;;;202.73;188.23;;;14.20;99.90;;;;;;6129028;23;20409;-84
2021/12/31 11:36:40;;;;;;;215.30;200.40;;;14.20;99.90;;;;;;6128713;23;20400;-85
2021/12/31 11:39:24;;;;;;;198.83;184.20;;;14.20;99.90;;;;;;6103026;23;20370;-84
2021/12/31 11:42:12;;;;;;;206.33;191.27;;;14.30;99.90;;;;;;6102045;23;20375;-84
2021/12/31 11:45:02;;;;;;;212.40;197.07;;;14.30;99.90;;;;;;6129178;23;20386;-84
2021/12/31 11:47:28;;;;;;;226.87;211.47;;;14.30;99.90;;;;;;6127822;23;20424;-84
2021/12/31 11:50:24;;;;;;;214.17;198.83;;;14.30;99.90;;;;;;6103148;23;20451;-84
2021/12/31 11:53:02;;;;;;;209.93;194.77;;;14.30;99.90;;;;;;6102479;23;20208;-84
2021/12/31 11:55:42;;;;;;;217.13;202.00;;;14.30;99.90;;;;;;6102425;23;20782;-84
2021/12/31 11:58:40;;;;;;;224.60;209.30;;;14.20;99.90;;;;;;6102005;23;20370;-84
2021/12/31 12:01:37;;;;;;;209.50;194.57;;;14.30;99.90;;;;;;6127820;23;20398;-84
2021/12/31 12:04:27;;;;;;;219.10;203.90;;;14.30;99.90;;;;;;6127949;23;20386;-85
2021/12/31 12:06:55;;;;;;;205.07;190.10;;;14.30;99.90;;;;;;6128718;23;20351;-85
2021/12/31 12:09:21;;;;;;;214.13;198.13;;;14.40;99.90;;;;;;6128445;23;20414;-84
2021/12/31 12:12:02;;;;;;;164.33;150.70;;;14.40;99.90;;;;;;6101934;23;20720;-85
2021/12/31 12:14:32;;;;;;;123.70;111.23;;;14.40;99.90;;;;;;6128251;23;20390;-84
2021/12/31 12:16:58;;;;;;;122.30;109.87;;;14.50;99.90;;;;;;6103100;23;20363;-84
2021/12/31 12:19:49;;;;;;;140.70;127.83;;;14.50;99.90;;;;;;6101763;23;20425;-84
2021/12/31 12:22:33;;;;;;;188.57;173.30;;;14.60;99.90;;;;;;6102240;23;20379;-84
2021/12/31 12:25:02;;;;;;;205.13;189.90;;;14.50;99.90;;;;;;6128124;23;20394;-84
2021/12/31 12:27:28;;;;;;;192.23;177.57;;;14.60;99.90;;;;;;6128857;23;20841;-85
2021/12/31 12:29:55;;;;;;;144.97;131.93;;;14.60;99.90;;;;;;6128197;23;20516;-84
2021/12/31 12:32:34;;;;;;;157.90;143.93;;;14.60;99.90;;;;;;6127517;23;20371;-85
2021/12/31 12:35:21;;;;;;;128.90;116.67;;;14.60;99.90;;;;;;6102961;23;20900;-85
2021/12/31 12:38:19;;;;;;;158.87;145.20;;;14.60;99.90;;;;;;6101969;23;20370;-85
2021/12/31 12:40:45;;;;;;;163.63;150.17;;;14.60;99.90;;;;;;6121434;23;20443;-84
2021/12/31 12:43:16;;;;;;;216.20;200.40;;;14.60;99.90;;;;;;6102047;23;20382;-85
2021/12/31 12:45:52;;;;;;;212.43;197.07;;;14.60;99.90;;;;;;6101294;23;20174;-85
2021/12/31 12:48:34;;;;;;;169.50;155.80;;;14.70;99.90;;;;;;6101729;23;20439;-84
2021/12/31 12:51:14;;;;;;;166.57;152.77;;;14.60;99.90;;;;;;6122245;23;20442;-87
2021/12/31 12:53:51;;;;;;;211.13;195.30;;;14.60;99.90;;;;;;6126988;23;20467;-86
2021/12/31 12:56:20;;;;;;;236.77;220.53;;;14.60;99.90;;;;;;6126607;23;20367;-86
2021/12/31 12:58:56;;;;;;;228.20;212.27;;;14.60;99.90;;;;;;6126503;23;20355;-87
2021/12/31 13:08:19;;;;;;;90.07;64.40;;;14.70;99.90;;;;;;6123714;23;20189;-87
2021/12/31 13:11:17;;;;;;;79.70;36.50;;;14.70;99.90;;;;;;6097494;23;20421;-87
2021/12/31 13:14:04;;;;;;;;;;;;;;;;;;;;;
2021/12/31 13:16:41;;;;;;;72.17;16.70;;;14.90;99.90;;;;;;6125903;23;20466;-86
2021/12/31 13:19:28;;;;;;;71.60;17.13;;;14.90;99.90;;;;;;6123443;23;20343;-87
2021/12/31 13:22:35;;;;;;;73.57;17.93;;;15.00;99.90;;;;;;6123618;23;20405;-89
2021/12/31 13:25:48;;;;;;;73.57;19.40;;;15.00;99.90;;;;;;6096010;23;20438;-87
2021/12/31 13:29:16;;;;;;;;;;;;;;;;;;;;;
2021/12/31 13:35:36;;;;;;;72.33;16.73;;;14.90;99.90;;;;;;6126337;23;20417;-87
2021/12/31 13:38:24;;;;;;;;;;;;;;;;;;;;;
2021/12/31 13:41:21;;;;;;;;;;;;;;;;;;;;;
2021/12/31 13:47:52;;;;;;;77.73;31.03;;;14.90;99.90;;;;;;6123530;23;20382;-86
2021/12/31 13:51:14;;;;;;;84.57;48.47;;;14.90;99.90;;;;;;6081129;23;20418;-87
2021/12/31 13:54:05;;;;;;;79.13;35.70;;;15.00;99.90;;;;;;6028403;23;20942;-87
2021/12/31 14:03:43;;;;;;;73.37;19.30;;;15.30;99.90;;;;;;6108106;23;20402;-87
2021/12/31 14:06:32;;;;;;;72.50;16.77;;;15.40;99.90;;;;;;6123172;23;20700;-87
2021/12/31 14:09:07;;;;;;;73.80;20.03;;;15.40;99.90;;;;;;6098856;23;20382;-87
2021/12/31 14:12:39;;;;;;;74.50;20.10;;;15.40;99.90;;;;;;6098227;23;20378;-87
2021/12/31 14:15:12;;;;;;;76.23;21.20;;;15.50;99.90;;;;;;6100443;23;20455;-86
2021/12/31 14:17:50;;;;;;;75.27;24.27;;;15.50;99.90;;;;;;6124018;23;20375;-86
2021/12/31 14:20:34;;;;;;;74.80;22.10;;;15.60;99.90;;;;;;6097223;23;20378;-86
2021/12/31 14:25:54;;;;;;;;;;;;;;;;;;;;;
2021/12/31 14:28:35;;;;;;;;;;;;;;;;;;;;;
2021/12/31 14:41:28;;;;;;;76.20;21.23;;;15.30;99.90;;;;;;6113428;23;20393;-86
2021/12/31 14:44:17;;;;;;;;;;;;;;;;;;;;;
2021/12/31 14:47:34;;;;;;;75.00;24.40;;;15.30;99.90;;;;;;6119895;23;20457;-86
2021/12/31 14:50:05;;;;;;;74.87;22.87;;;15.30;99.90;;;;;;6113294;23;20406;-86
2021/12/31 14:53:02;;;;;;;78.90;26.40;;;15.30;99.90;;;;;;6100298;23;20380;-86